Time;durP1;ratioP1;P1;durP2;ratioP2;P2;SDS_P1;SDS_P2;PMS_P1;PMS_P2;Temp;Humidity;BMP_temperature;BMP_pressure;BME280_temperature;BME280_humidity;BME280_pressure;Samples;Min_cycle;Max_cycle;Signal;HPM_P1;HPM_P2
2022/12/29 00:00:21;;;;;;;19.82;9.58;;;;;;;-1.69;67.82;102105.83;1780759;78;28250;-63
2022/12/29 00:02:49;;;;;;;22.37;9.68;;;;;;;-1.67;68.14;102102.30;1791869;78;25739;-63
2022/12/29 00:05:17;;;;;;;20.27;8.85;;;;;;;-1.64;67.90;102098.27;1782542;80;25798;-63
2022/12/29 00:07:43;;;;;;;126.07;62.83;;;;;;;-1.63;67.99;102097.83;1787826;80;25829;-62
2022/12/29 00:10:10;;;;;;;19.75;10.15;;;;;;;-1.65;67.94;102093.88;1789517;80;25793;-63
2022/12/29 00:15:37;;;;;;;18.35;9.75;;;;;;;-1.71;67.60;102091.81;1766195;80;25758;-62
2022/12/29 00:18:05;;;;;;;20.85;10.03;;;;;;;-1.78;68.38;102082.66;1767408;80;25665;-63
2022/12/29 00:44:04;;;;;;;18.85;9.53;;;;;;;-1.96;67.98;102097.02;1774947;80;25755;-63
2022/12/29 00:45:17;;;;;;;21.60;9.43;;;;;;;-2.02;68.14;102090.95;1776370;78;25760;-63
2022/12/29 00:47:44;;;;;;;19.95;9.05;;;;;;;-2.00;68.05;102086.53;1781105;80;25786;-63
2022/12/29 00:50:11;;;;;;;18.90;8.95;;;;;;;-1.99;68.20;102084.33;1781103;79;25757;-63
2022/12/29 00:52:38;;;;;;;20.68;9.73;;;;;;;-1.96;68.34;102082.94;1780900;80;27491;-63
2022/12/29 00:55:06;;;;;;;19.05;9.00;;;;;;;-1.94;68.23;102089.06;1771731;79;25710;-63
2022/12/29 00:57:33;;;;;;;22.67;9.63;;;;;;;-1.93;68.29;102090.35;1770775;81;25817;-63
2022/12/29 01:00:00;;;;;;;22.10;11.57;;;;;;;-1.93;68.07;102082.90;1772165;79;25803;-63
2022/12/29 01:02:27;;;;;;;19.92;9.05;;;;;;;-1.98;68.02;102075.06;1759501;79;25761;-63
2022/12/29 01:04:54;;;;;;;21.20;10.13;;;;;;;-2.00;68.01;102072.88;1752586;80;28449;-63
2022/12/29 01:07:21;;;;;;;22.75;9.25;;;;;;;-2.01;68.09;102066.33;1777479;79;25810;-63
2022/12/29 01:12:40;;;;;;;22.58;8.93;;;;;;;-2.05;68.12;102061.55;1727192;80;25852;-63
2022/12/29 01:15:12;;;;;;;24.85;9.88;;;;;;;-2.03;68.28;102061.08;1770924;79;25689;-64
2022/12/29 01:17:39;;;;;;;20.12;10.40;;;;;;;-2.04;68.22;102054.06;1778778;79;27406;-63
2022/12/29 01:20:07;;;;;;;17.65;10.03;;;;;;;-2.05;68.16;102055.81;1777415;79;26144;-63
2022/12/29 01:22:35;;;;;;;20.72;10.08;;;;;;;-2.03;68.30;102057.13;1770896;79;25788;-63
2022/12/29 01:25:04;;;;;;;21.10;9.63;;;;;;;-2.06;68.15;102046.62;1780065;79;27904;-64
2022/12/29 01:27:31;;;;;;;20.55;8.88;;;;;;;-2.06;68.34;102050.11;1779375;79;25789;-64
2022/12/29 01:29:58;;;;;;;17.12;9.05;;;;;;;-2.06;68.11;102046.62;1780979;79;27407;-64
2022/12/29 01:32:25;;;;;;;16.23;8.90;;;;;;;-2.08;68.15;102053.67;1772690;80;25787;-62
2022/12/29 01:34:52;;;;;;;22.00;9.58;;;;;;;-2.11;68.01;102051.10;1780217;79;25611;-62
2022/12/29 01:37:19;;;;;;;18.70;10.18;;;;;;;-2.15;68.03;102037.53;1776457;79;26528;-62
2022/12/29 01:39:47;;;;;;;17.87;8.80;;;;;;;-2.16;68.19;102044.58;1777400;79;25766;-62
2022/12/29 01:42:21;;;;;;;17.07;9.15;;;;;;;-2.19;68.32;102038.02;1770622;79;27482;-62
2022/12/29 01:44:58;;;;;;;19.87;10.25;;;;;;;-2.20;68.34;102041.09;1771021;79;25741;-63
2022/12/29 01:47:45;;;;;;;18.95;9.55;;;;;;;-2.22;68.49;102041.58;1766882;79;25811;-63
2022/12/29 01:50:17;;;;;;;24.12;10.43;;;;;;;-2.21;68.28;102045.08;1750128;81;25966;-63
2022/12/29 01:52:55;;;;;;;22.10;10.20;;;;;;;-2.23;68.49;102033.25;1769534;81;27361;-63
2022/12/29 01:55:23;;;;;;;19.42;10.13;;;;;;;-2.26;68.54;102028.47;1763126;81;28787;-63
2022/12/29 01:57:53;;;;;;;21.97;10.75;;;;;;;-2.26;68.39;102025.38;1767142;81;25803;-62
2022/12/29 02:00:20;;;;;;;20.02;10.18;;;;;;;-2.28;68.50;102026.30;1768742;79;25742;-63
2022/12/29 02:02:51;;;;;;;26.55;11.30;;;;;;;-2.28;68.57;102027.61;1770577;81;26087;-63
2022/12/29 02:05:39;;;;;;;19.95;9.48;;;;;;;-2.25;68.58;102026.27;1765954;79;25825;-64
2022/12/29 02:08:08;;;;;;;19.90;9.93;;;;;;;-2.28;68.50;102028.93;1759773;80;27661;-63
2022/12/29 02:10:36;;;;;;;18.35;9.65;;;;;;;-2.34;68.27;102034.30;1767994;81;25787;-64
2022/12/29 02:13:03;;;;;;;20.30;9.60;;;;;;;-2.38;68.28;102027.75;1768350;81;25710;-64
2022/12/29 02:15:37;;;;;;;26.05;10.78;;;;;;;-2.51;67.86;102022.23;1767265;81;25934;-64
2022/12/29 02:18:12;;;;;;;22.40;8.48;;;;;;;-2.56;68.45;102018.34;1770197;79;25923;-64
2022/12/29 02:21:23;;;;;;;15.98;9.53;;;;;;;-2.53;68.71;102019.60;1768276;81;27616;-64
2022/12/29 02:24:14;;;;;;;20.35;9.70;;;;;;;-2.46;69.02;102022.14;1736456;82;25778;-64
2022/12/29 02:27:30;;;;;;;18.98;9.50;;;;;;;-2.40;68.90;102020.30;1751625;79;25762;-63
2022/12/29 02:30:18;;;;;;;23.98;8.83;;;;;;;-2.39;68.91;102024.68;1732262;80;25807;-63
2022/12/29 02:32:56;;;;;;;24.67;9.05;;;;;;;-2.35;68.90;102013.64;1757569;81;25838;-63
2022/12/29 02:36:03;;;;;;;17.92;9.48;;;;;;;-2.37;68.90;102008.41;1746443;81;27487;-63
2022/12/29 02:38:59;;;;;;;27.77;10.25;;;;;;;-2.36;68.85;102019.80;1751244;81;25728;-63
2022/12/29 02:41:45;;;;;;;17.82;10.13;;;;;;;-2.38;68.83;102019.84;1741796;81;25787;-63
2022/12/29 02:44:53;;;;;;;21.73;10.35;;;;;;;-2.37;68.74;102019.38;1762181;81;25810;-63
2022/12/29 02:47:44;;;;;;;44.42;19.10;;;;;;;-2.35;68.75;102013.64;1757984;78;25918;-63
2022/12/29 02:50:46;;;;;;;48.35;20.02;;;;;;;-2.39;68.67;102008.02;1784012;80;27427;-63
2022/12/29 02:54:40;;;;;;;47.10;18.92;;;;;;;-2.36;68.82;102000.92;1788111;79;25734;-63
2022/12/29 02:55:52;;;;;;;28.98;13.53;;;;;;;-2.31;68.94;101999.97;1785746;80;25452;-63
2022/12/29 02:58:23;;;;;;;30.95;14.18;;;;;;;-2.30;68.74;101999.08;1763489;79;25806;-64
2022/12/29 03:01:18;;;;;;;32.60;12.63;;;;;;;-2.34;68.80;101992.98;1789557;80;25694;-63
2022/12/29 03:04:15;;;;;;;22.37;11.88;;;;;;;-2.35;68.75;101999.14;1789716;80;27673;-63
2022/12/29 03:07:02;;;;;;;26.00;11.80;;;;;;;-2.35;68.87;102001.78;1788777;78;25782;-63
2022/12/29 03:09:55;;;;;;;28.77;13.70;;;;;;;-2.39;68.58;101993.05;1789489;78;25784;-63
2022/12/29 03:18:24;;;;;;;26.95;13.70;;;;;;;-2.53;68.58;101995.89;1774996;78;27488;-63
2022/12/29 03:21:15;;;;;;;22.45;12.00;;;;;;;-2.54;68.73;101992.83;1759046;78;25802;-63
2022/12/29 03:23:50;;;;;;;22.40;10.68;;;;;;;-2.57;68.67;101991.57;1770652;80;26402;-62
2022/12/29 03:26:18;;;;;;;27.77;11.60;;;;;;;-2.59;68.68;101985.87;1732018;80;25758;-63
2022/12/29 03:28:50;;;;;;;22.48;11.60;;;;;;;-2.59;68.65;101989.40;1746586;80;25849;-64
2022/12/29 03:31:21;;;;;;;24.92;12.10;;;;;;;-2.60;68.68;101983.70;1768453;78;27473;-63
2022/12/29 03:33:50;;;;;;;21.30;10.25;;;;;;;-2.58;68.62;101987.62;1788935;78;25771;-63
2022/12/29 03:36:32;;;;;;;24.27;11.00;;;;;;;-2.60;68.49;101986.80;1748808;80;25722;-64
2022/12/29 03:39:08;;;;;;;22.73;9.93;;;;;;;-2.60;68.51;101981.53;1790070;80;25803;-63
2022/12/29 03:41:37;;;;;;;19.80;9.53;;;;;;;-2.62;68.29;101986.80;1788797;80;25483;-63
2022/12/29 03:44:08;;;;;;;22.07;10.50;;;;;;;-2.65;68.31;101992.13;1780452;78;27463;-63
2022/12/29 03:46:35;;;;;;;21.35;9.60;;;;;;;-2.73;68.44;101981.69;1765718;80;25756;-63
2022/12/29 03:49:03;;;;;;;20.48;9.13;;;;;;;-2.79;68.30;101980.46;1756128;81;25794;-63
2022/12/29 03:51:30;;;;;;;20.52;9.28;;;;;;;-2.78;68.49;101968.15;1757824;78;26449;-63
2022/12/29 03:53:57;;;;;;;17.75;9.85;;;;;;;-2.76;68.73;101972.50;1789683;78;25461;-63
2022/12/29 03:56:25;;;;;;;23.98;8.83;;;;;;;-2.75;68.82;101962.85;1790575;78;27537;-63
2022/12/29 03:58:53;;;;;;;18.55;8.70;;;;;;;-2.71;68.93;101968.48;1790824;78;25967;-63
2022/12/29 04:01:22;;;;;;;20.10;9.50;;;;;;;-2.67;69.02;101975.47;1773577;80;25744;-64
2022/12/29 04:03:49;;;;;;;19.40;8.75;;;;;;;-2.66;69.01;101973.26;1767520;78;27963;-63
2022/12/29 04:06:16;;;;;;;21.48;8.10;;;;;;;-2.65;69.01;101974.11;1760913;78;25780;-63
2022/12/29 04:08:45;;;;;;;19.02;10.03;;;;;;;-2.67;69.00;101972.83;1787737;80;27482;-64
2022/12/29 04:11:13;;;;;;;18.80;9.05;;;;;;;-2.75;68.83;101968.97;1774533;80;27176;-63
2022/12/29 04:13:41;;;;;;;18.90;9.38;;;;;;;-2.79;68.75;101966.41;1759606;81;25657;-64
2022/12/29 04:16:09;;;;;;;18.95;9.30;;;;;;;-2.78;68.82;101965.05;1771583;78;26464;-63
2022/12/29 04:18:36;;;;;;;15.85;9.63;;;;;;;-2.77;68.84;101959.36;1757906;80;26382;-64
2022/12/29 04:21:03;;;;;;;20.70;9.73;;;;;;;-2.76;68.81;101970.33;1759126;81;27485;-63
2022/12/29 04:23:37;;;;;;;20.90;9.70;;;;;;;-2.80;68.68;101968.18;1787768;78;25851;-63
2022/12/29 04:26:08;;;;;;;19.45;10.48;;;;;;;-2.80;68.75;101965.55;1783572;78;25804;-64
2022/12/29 04:28:37;;;;;;;25.25;11.22;;;;;;;-2.80;68.70;101968.18;1781182;80;26507;-64
2022/12/29 04:31:09;;;;;;;22.15;8.70;;;;;;;-2.83;68.62;101966.89;1771782;80;25733;-65
2022/12/29 04:33:38;;;;;;;17.30;8.78;;;;;;;-2.88;68.63;101970.91;1774901;78;25896;-65
2022/12/29 04:36:06;;;;;;;18.00;9.33;;;;;;;-2.92;68.83;101973.17;1782595;78;25749;-64
2022/12/29 04:38:33;;;;;;;31.93;10.78;;;;;;;-2.94;68.84;101978.89;1784777;80;25829;-65
2022/12/29 04:41:02;;;;;;;26.62;10.25;;;;;;;-2.93;69.01;101974.06;1778790;80;25880;-64
2022/12/29 04:43:30;;;;;;;20.02;9.35;;;;;;;-2.91;69.03;101982.78;1759178;81;25793;-64
2022/12/29 04:46:17;;;;;;;20.85;10.08;;;;;;;-2.91;69.04;101973.56;1713396;83;27602;-64
2022/12/29 04:48:46;;;;;;;17.30;8.15;;;;;;;-2.89;69.07;101984.10;1756305;81;25916;-63
2022/12/29 04:51:30;;;;;;;23.80;9.03;;;;;;;-2.87;69.14;101987.13;1804431;77;25727;-64
2022/12/29 04:53:57;;;;;;;18.87;8.98;;;;;;;-2.85;69.04;101987.99;1856647;77;25737;-64
2022/12/29 04:56:25;;;;;;;17.25;9.90;;;;;;;-2.80;69.13;101985.73;1853082;75;25787;-64
2022/12/29 04:58:52;;;;;;;19.17;8.83;;;;;;;-2.78;69.09;101986.58;1831576;75;27549;-64
2022/12/29 05:01:21;;;;;;;23.77;9.38;;;;;;;-2.80;69.08;101992.31;1834282;75;25770;-64
2022/12/29 05:03:51;;;;;;;20.82;9.28;;;;;;;-2.78;69.19;101994.48;1856622;77;25702;-64
2022/12/29 05:06:19;;;;;;;21.62;12.20;;;;;;;-2.74;69.13;101990.94;1835872;75;25852;-64
2022/12/29 05:08:46;;;;;;;18.07;9.23;;;;;;;-2.72;69.24;101993.08;1825538;75;27285;-64
2022/12/29 05:11:13;;;;;;;19.67;8.90;;;;;;;-2.71;69.24;102004.93;1855690;77;27522;-64
2022/12/29 05:13:40;;;;;;;21.23;8.65;;;;;;;-2.72;69.10;102004.93;1856687;77;26007;-65
2022/12/29 05:16:08;;;;;;;13.65;7.85;;;;;;;-2.80;68.74;102008.11;1854534;75;25633;-64
2022/12/29 05:18:35;;;;;;;22.42;10.35;;;;;;;-2.88;68.75;102001.19;1834228;77;26310;-63
2022/12/29 05:21:05;;;;;;;19.48;9.90;;;;;;;-2.90;68.98;102001.64;1827062;77;25838;-64
2022/12/29 05:23:33;;;;;;;18.15;9.05;;;;;;;-2.87;69.42;102002.08;1834178;77;29624;-63
2022/12/29 05:26:02;;;;;;;20.05;11.18;;;;;;;-2.81;69.62;102002.41;1854895;76;25812;-64
2022/12/29 05:28:34;;;;;;;19.50;9.85;;;;;;;-2.80;69.45;101998.47;1762635;77;26417;-63
2022/12/29 05:31:03;;;;;;;18.23;10.23;;;;;;;-2.78;69.61;102001.92;1850738;75;25853;-64
2022/12/29 05:33:31;;;;;;;55.73;20.55;;;;;;;-2.77;69.65;102008.08;1852070;77;27218;-64
2022/12/29 05:36:05;;;;;;;56.68;23.55;;;;;;;-2.78;69.59;102008.97;1820921;77;27458;-64
2022/12/29 05:38:31;;;;;;;41.33;18.27;;;;;;;-2.83;69.55;102002.45;1815757;77;26073;-65
2022/12/29 05:40:58;;;;;;;28.15;12.90;;;;;;;-2.80;69.70;102010.75;1841430;77;25764;-64
2022/12/29 05:43:42;;;;;;;28.02;11.50;;;;;;;-2.76;69.43;102011.15;1733286;81;25834;-64
2022/12/29 05:46:17;;;;;;;26.90;12.37;;;;;;;-2.81;69.28;102012.95;1816375;76;25783;-65
2022/12/29 05:48:48;;;;;;;26.42;13.32;;;;;;;-2.78;69.40;102014.23;1827703;77;28352;-65
2022/12/29 05:51:17;;;;;;;25.85;12.53;;;;;;;-2.74;69.48;102014.64;1838035;77;25681;-65
2022/12/29 05:53:49;;;;;;;26.77;12.00;;;;;;;-2.75;69.48;102011.58;1856163;75;25745;-64
2022/12/29 05:56:16;;;;;;;22.62;11.15;;;;;;;-2.74;69.54;102015.95;1856012;75;25789;-64
2022/12/29 05:58:44;;;;;;;42.93;17.90;;;;;;;-2.74;69.67;102010.23;1816174;78;25722;-64
2022/12/29 06:01:11;;;;;;;31.23;16.32;;;;;;;-2.66;69.78;102019.36;1837150;77;28318;-64
2022/12/29 06:03:38;;;;;;;27.77;14.95;;;;;;;-2.62;69.71;102013.60;1832613;77;25720;-64
2022/12/29 06:06:05;;;;;;;26.10;12.05;;;;;;;-2.61;69.49;102020.62;1850210;77;25749;-64
2022/12/29 06:08:32;;;;;;;24.40;13.10;;;;;;;-2.65;69.48;102017.16;1816072;77;25783;-64
2022/12/29 06:10:59;;;;;;;26.02;13.15;;;;;;;-2.65;69.44;102022.42;1834654;75;26177;-64
2022/12/29 06:13:27;;;;;;;25.45;12.58;;;;;;;-2.65;69.50;102017.16;1821892;77;27483;-64
2022/12/29 06:15:55;;;;;;;22.93;10.75;;;;;;;-2.61;69.41;102016.20;1852493;75;25748;-65
2022/12/29 06:18:22;;;;;;;25.95;9.50;;;;;;;-2.61;69.39;102017.52;1854382;75;26345;-64
2022/12/29 06:20:49;;;;;;;21.05;10.60;;;;;;;-2.60;69.33;102021.91;1832442;75;25767;-64
2022/12/29 06:23:18;;;;;;;67.15;19.92;;;;;;;-2.61;69.44;102024.57;1853041;77;25841;-65
2022/12/29 06:25:48;;;;;;;48.02;15.60;;;;;;;-2.61;69.49;102020.16;1852424;75;27528;-64
2022/12/29 06:28:16;;;;;;;37.15;15.28;;;;;;;-2.59;69.69;102022.33;1816074;79;25709;-64
2022/12/29 06:30:45;;;;;;;37.17;17.73;;;;;;;-2.55;69.71;102017.89;1833166;75;25686;-65
2022/12/29 06:33:13;;;;;;;34.33;15.18;;;;;;;-2.48;69.79;102012.95;1852148;75;25798;-64
2022/12/29 06:35:42;;;;;;;36.55;13.48;;;;;;;-2.43;69.73;102009.82;1840230;77;25578;-65
2022/12/29 06:38:09;;;;;;;45.25;16.97;;;;;;;-2.39;69.73;102011.97;1845768;77;27457;-64
2022/12/29 06:40:36;;;;;;;40.60;17.75;;;;;;;-2.39;69.57;102014.59;1839218;77;25738;-64
2022/12/29 06:43:14;;;;;;;82.27;32.13;;;;;;;-2.35;69.69;102005.73;1807613;79;25707;-64
2022/12/29 06:45:43;;;;;;;75.03;28.35;;;;;;;-2.28;69.78;102013.11;1854620;77;25862;-64
2022/12/29 06:48:10;;;;;;;39.73;17.65;;;;;;;-2.22;69.60;102013.02;1848919;76;25754;-64
2022/12/29 06:50:36;;;;;;;50.70;19.12;;;;;;;-2.14;69.77;102015.55;1826156;77;27466;-64
2022/12/29 06:53:03;;;;;;;57.27;22.82;;;;;;;-2.03;69.83;102018.00;1855504;75;25837;-63
2022/12/29 06:55:30;;;;;;;36.90;16.52;;;;;;;-1.95;69.93;102014.36;1859908;75;25763;-64
2022/12/29 06:57:59;;;;;;;43.95;13.98;;;;;;;-1.79;70.11;102016.73;1859561;75;25729;-64
2022/12/29 07:00:26;;;;;;;37.95;15.63;;;;;;;-1.73;69.79;102017.94;1859535;75;25782;-65
2022/12/29 07:02:57;;;;;;;38.92;15.50;;;;;;;-1.65;69.72;102015.18;1859838;75;27547;-64
2022/12/29 07:05:32;;;;;;;48.73;19.85;;;;;;;-1.57;69.95;102015.45;1859187;75;25723;-64
2022/12/29 07:07:55;;;;;;;46.13;20.02;;;;;;;-1.47;69.91;102019.24;1843756;75;25761;-64
2022/12/29 07:10:23;;;;;;;35.58;16.50;;;;;;;-1.37;70.02;102016.86;1859548;77;25805;-64
2022/12/29 07:12:51;;;;;;;32.25;15.50;;;;;;;-1.27;70.14;102013.61;1857945;76;25712;-64
2022/12/29 07:15:18;;;;;;;32.17;14.25;;;;;;;-1.18;70.09;102016.52;1843830;75;28174;-64
2022/12/29 07:17:45;;;;;;;24.60;12.30;;;;;;;-1.09;70.39;102019.44;1830727;76;25733;-64
2022/12/29 07:20:12;;;;;;;33.98;15.50;;;;;;;-0.97;70.48;102022.70;1819562;77;25806;-64
2022/12/29 07:22:39;;;;;;;33.15;12.53;;;;;;;-0.91;70.19;102031.39;1832427;77;25962;-64
2022/12/29 07:25:07;;;;;;;30.75;14.60;;;;;;;-0.86;70.34;102025.12;1859603;76;26063;-64
2022/12/29 07:27:34;;;;;;;29.87;14.30;;;;;;;-0.82;70.20;102030.77;1854464;77;27450;-65
2022/12/29 07:30:01;;;;;;;34.43;14.10;;;;;;;-0.79;70.16;102029.37;1854184;77;25771;-64
2022/12/29 07:32:28;;;;;;;55.23;16.75;;;;;;;-0.73;70.22;102020.91;1853391;77;25809;-64
2022/12/29 07:34:55;;;;;;;32.60;15.40;;;;;;;-0.66;70.39;102025.16;1848558;77;26298;-64
2022/12/29 07:37:22;;;;;;;36.88;17.82;;;;;;;-0.65;70.45;102019.83;1840522;75;25912;-64
2022/12/29 07:39:49;;;;;;;45.25;19.10;;;;;;;-0.57;70.53;102022.75;1829841;77;27529;-64
2022/12/29 07:42:16;;;;;;;51.73;21.37;;;;;;;-0.49;70.51;102023.45;1845779;77;25686;-64
2022/12/29 07:44:45;;;;;;;48.52;20.27;;;;;;;-0.40;70.69;102017.95;1836852;77;26000;-64
2022/12/29 07:47:16;;;;;;;31.57;16.73;;;;;;;-0.33;70.76;102019.58;1825992;77;25945;-64
2022/12/29 07:49:43;;;;;;;32.83;14.68;;;;;;;-0.26;70.83;102017.64;1851070;75;25665;-63
2022/12/29 07:52:10;;;;;;;29.32;14.15;;;;;;;-0.20;70.78;102014.88;1829380;77;27541;-64
2022/12/29 07:54:37;;;;;;;38.98;15.05;;;;;;;-0.14;70.72;102020.47;1856646;77;25598;-64
2022/12/29 07:57:05;;;;;;;31.33;13.85;;;;;;;-0.02;70.84;102020.63;1832022;77;25683;-64
2022/12/29 07:59:32;;;;;;;27.52;14.28;;;;;;;0.06;70.84;102009.41;1856144;76;25875;-64
2022/12/29 08:01:59;;;;;;;30.50;13.40;;;;;;;0.18;70.92;102011.34;1828498;76;26085;-64
2022/12/29 08:04:26;;;;;;;31.02;14.07;;;;;;;0.33;70.92;102008.29;1855417;77;27504;-63
2022/12/29 08:06:53;;;;;;;24.55;12.25;;;;;;;0.44;71.06;102008.00;1852698;77;25745;-65
2022/12/29 08:09:20;;;;;;;22.73;12.45;;;;;;;0.56;70.82;101998.42;1855876;77;25745;-64
2022/12/29 08:11:47;;;;;;;25.72;13.35;;;;;;;0.66;70.69;102000.82;1852952;77;25782;-64
2022/12/29 08:14:14;;;;;;;32.08;14.43;;;;;;;0.81;70.49;101992.91;1827664;75;25775;-64
2022/12/29 08:16:40;;;;;;;24.70;13.30;;;;;;;0.96;70.52;101991.14;1850616;75;27457;-64
2022/12/29 08:19:07;;;;;;;29.20;12.88;;;;;;;1.20;70.27;101992.66;1847880;75;25722;-65
2022/12/29 08:21:34;;;;;;;29.30;12.78;;;;;;;1.66;69.46;101992.58;1844316;75;25741;-65
2022/12/29 08:24:00;;;;;;;27.10;12.18;;;;;;;2.30;68.14;101986.06;1846808;75;27983;-65
2022/12/29 08:26:28;;;;;;;24.60;13.20;;;;;;;2.87;66.73;101984.48;1847171;77;25784;-65
2022/12/29 08:28:55;;;;;;;26.52;13.25;;;;;;;3.24;65.80;101984.44;1844327;77;27646;-65
2022/12/29 08:31:23;;;;;;;30.65;11.33;;;;;;;3.60;65.21;101979.08;1852511;77;25749;-65
2022/12/29 08:33:51;;;;;;;25.32;12.75;;;;;;;3.95;64.69;101968.79;1848619;75;26176;-65
2022/12/29 08:36:18;;;;;;;31.00;15.03;;;;;;;4.51;63.95;101967.77;1829171;77;26546;-65
2022/12/29 08:38:46;;;;;;;24.65;12.78;;;;;;;4.87;63.54;101961.73;1848817;77;25753;-65
2022/12/29 08:41:13;;;;;;;29.60;13.65;;;;;;;5.21;61.35;101960.61;1851614;77;28265;-66
2022/12/29 08:43:39;;;;;;;25.85;13.68;;;;;;;5.67;61.68;101950.41;1836515;77;26358;-65
2022/12/29 08:46:06;;;;;;;25.48;11.75;;;;;;;6.05;61.16;101950.33;1830716;77;25717;-65
2022/12/29 08:48:33;;;;;;;22.55;11.60;;;;;;;6.55;61.14;101943.77;1854802;77;25771;-65
2022/12/29 08:51:00;;;;;;;26.93;12.47;;;;;;;7.12;61.37;101930.48;1848552;77;25797;-65
2022/12/29 08:53:27;;;;;;;24.47;12.43;;;;;;;7.56;60.23;101935.13;1849306;77;27436;-66
2022/12/29 08:55:59;;;;;;;31.95;14.70;;;;;;;7.87;57.64;101929.35;1846580;77;25727;-65
2022/12/29 08:58:27;;;;;;;24.02;13.13;;;;;;;8.15;56.67;101927.23;1849593;77;25672;-65
2022/12/29 09:00:57;;;;;;;26.15;13.35;;;;;;;8.55;56.56;101921.78;1808384;78;26440;-66
2022/12/29 09:03:25;;;;;;;22.52;11.83;;;;;;;8.80;55.54;101922.44;1813213;77;25754;-65
2022/12/29 09:05:54;;;;;;;22.07;12.13;;;;;;;9.11;53.81;101926.33;1847033;75;27467;-66
2022/12/29 09:08:23;;;;;;;20.57;10.85;;;;;;;9.32;52.53;101917.40;1851018;77;25753;-66
2022/12/29 09:10:50;;;;;;;22.22;11.70;;;;;;;9.57;53.04;101912.59;1841211;77;25793;-66
2022/12/29 09:13:18;;;;;;;17.20;10.38;;;;;;;9.93;52.45;101913.78;1852108;77;25740;-66
2022/12/29 09:15:45;;;;;;;21.52;10.98;;;;;;;10.16;51.48;101907.34;1844162;77;25919;-66
2022/12/29 09:18:12;;;;;;;22.90;10.95;;;;;;;10.60;51.92;101911.95;1842047;75;27449;-66
2022/12/29 09:20:39;;;;;;;20.30;11.28;;;;;;;11.12;50.92;101900.62;1855882;75;25665;-66
2022/12/29 09:23:06;;;;;;;18.45;10.28;;;;;;;11.39;49.71;101898.21;1855623;75;25763;-66
2022/12/29 09:25:34;;;;;;;19.98;10.35;;;;;;;11.75;48.93;101892.38;1854950;77;25812;-66
2022/12/29 09:28:05;;;;;;;18.52;11.20;;;;;;;12.00;47.75;101891.41;1839193;77;25708;-67
2022/12/29 09:30:29;;;;;;;20.35;9.70;;;;;;;11.86;45.70;101892.44;1823378;75;27483;-67
2022/12/29 09:32:56;;;;;;;19.42;11.05;;;;;;;12.03;46.92;101886.27;1846807;75;25657;-66
2022/12/29 09:35:23;;;;;;;22.77;10.75;;;;;;;12.34;46.71;101883.85;1859632;77;25703;-66
2022/12/29 09:37:50;;;;;;;17.27;10.72;;;;;;;12.76;46.62;101888.20;1855548;77;26620;-66
2022/12/29 09:40:32;;;;;;;19.95;11.18;;;;;;;13.15;45.75;101891.83;1859562;77;25708;-66
2022/12/29 09:43:29;;;;;;;23.45;10.58;;;;;;;13.25;44.15;101891.45;1856395;75;27314;-66
2022/12/29 09:46:10;;;;;;;23.70;9.75;;;;;;;13.55;43.28;101887.20;1856170;77;25932;-66
2022/12/29 09:48:43;;;;;;;17.55;9.90;;;;;;;14.06;44.43;101890.18;1854949;76;25742;-67
2022/12/29 09:51:17;;;;;;;19.02;9.70;;;;;;;14.59;40.95;101884.28;1822436;77;27456;-66
2022/12/29 09:53:55;;;;;;;17.50;10.25;;;;;;;14.73;41.92;101877.16;1830336;75;25639;-67
2022/12/29 09:56:25;;;;;;;19.80;10.98;;;;;;;15.16;41.61;101868.39;1808390;78;27479;-67
2022/12/29 09:59:06;;;;;;;24.75;12.25;;;;;;;15.22;38.81;101871.89;1832918;77;25766;-66
2022/12/29 10:01:54;;;;;;;27.13;11.18;;;;;;;14.85;39.26;101875.20;1847079;77;25737;-68
2022/12/29 10:04:21;;;;;;;22.95;10.75;;;;;;;15.21;39.60;101874.23;1832512;75;25940;-67
2022/12/29 10:07:02;;;;;;;24.98;10.48;;;;;;;15.27;38.73;101864.20;1822692;78;25694;-67
2022/12/29 10:09:36;;;;;;;16.12;10.30;;;;;;;15.30;37.52;101860.36;1831867;75;46405;-66
2022/12/29 10:12:42;;;;;;;18.87;11.25;;;;;;;15.48;38.78;101852.36;1841043;77;25722;-67
2022/12/29 10:15:37;;;;;;;23.12;11.53;;;;;;;15.38;37.03;101851.49;1826597;77;25674;-67
2022/12/29 10:18:33;;;;;;;20.52;10.68;;;;;;;15.33;37.66;101841.95;1838709;75;27940;-67
2022/12/29 10:21:34;;;;;;;22.87;11.63;;;;;;;15.40;37.25;101845.44;1842385;77;25777;-67
2022/12/29 10:24:05;;;;;;;22.50;10.13;;;;;;;15.46;37.31;101845.73;1853199;77;27571;-67
2022/12/29 10:26:42;;;;;;;23.00;10.85;;;;;;;15.87;36.23;101841.54;1856194;77;25844;-68
2022/12/29 10:29:27;;;;;;;18.05;11.97;;;;;;;16.21;36.73;101830.69;1834785;75;26349;-66
2022/12/29 10:32:00;;;;;;;29.75;13.28;;;;;;;16.40;36.17;101835.19;1854744;77;25798;-66
2022/12/29 10:34:50;;;;;;;24.32;13.15;;;;;;;16.10;35.69;101828.50;1855562;77;26399;-66
2022/12/29 10:37:35;;;;;;;20.05;12.10;;;;;;;16.35;36.04;101823.41;1829718;76;28110;-65
2022/12/29 10:40:13;;;;;;;19.48;12.43;;;;;;;16.71;36.20;101819.98;1866075;76;25985;-66
2022/12/29 10:42:45;;;;;;;27.52;12.00;;;;;;;16.85;35.95;101815.38;1787261;78;25831;-66
2022/12/29 10:45:16;;;;;;;31.23;11.48;;;;;;;16.79;35.29;101812.41;1824883;77;25887;-66
2022/12/29 10:48:07;;;;;;;22.93;12.43;;;;;;;16.35;35.23;101800.33;1850701;77;25720;-66
2022/12/29 10:50:35;;;;;;;14.78;10.50;;;;;;;15.80;35.21;101801.04;1822072;78;27488;-67
2022/12/29 10:53:05;;;;;;;19.82;11.88;;;;;;;15.40;36.08;101800.22;1848464;77;25792;-65
2022/12/29 10:55:36;;;;;;;23.07;11.95;;;;;;;15.36;36.20;101799.30;1831891;75;25438;-66
2022/12/29 10:58:07;;;;;;;24.45;13.53;;;;;;;15.51;35.54;101791.59;1857181;77;25796;-65
2022/12/29 11:00:34;;;;;;;17.62;11.60;;;;;;;15.88;36.34;101786.27;1855916;77;25791;-66
2022/12/29 11:03:33;;;;;;;23.18;11.20;;;;;;;15.98;35.46;101782.68;1855745;77;27524;-66
2022/12/29 11:06:17;;;;;;;17.92;10.55;;;;;;;16.00;34.82;101782.04;1855800;77;25725;-66
2022/12/29 11:09:04;;;;;;;26.87;12.00;;;;;;;15.64;35.80;101780.77;1824813;75;25737;-65
2022/12/29 11:11:36;;;;;;;21.55;11.68;;;;;;;15.79;35.88;101786.60;1826569;77;25846;-65
2022/12/29 11:14:13;;;;;;;18.57;11.78;;;;;;;16.12;35.74;101783.55;1832149;77;25904;-65
2022/12/29 11:16:43;;;;;;;22.05;12.47;;;;;;;16.20;35.87;101793.16;1847722;77;28247;-65
2022/12/29 11:19:22;;;;;;;19.87;10.32;;;;;;;16.56;34.43;101793.30;1844029;75;25722;-65
2022/12/29 11:21:50;;;;;;;27.67;10.53;;;;;;;16.68;33.90;101789.03;1813412;79;25806;-66
2022/12/29 11:24:27;;;;;;;19.92;10.95;;;;;;;16.76;34.91;101791.00;1856127;77;25780;-65
2022/12/29 11:27:22;;;;;;;15.68;9.80;;;;;;;16.78;34.16;101789.83;1855678;77;25684;-65
2022/12/29 11:29:49;;;;;;;27.60;10.65;;;;;;;16.76;34.53;101785.05;1859483;77;27542;-65
2022/12/29 11:32:23;;;;;;;25.75;15.35;;;;;;;16.51;34.10;101779.81;1855997;75;25716;-66
2022/12/29 11:34:51;;;;;;;20.27;10.58;;;;;;;16.03;34.47;101777.66;1824528;77;25820;-65
2022/12/29 11:37:42;;;;;;;14.70;9.73;;;;;;;15.81;35.34;101771.55;1845674;77;25752;-65
2022/12/29 11:40:21;;;;;;;18.52;9.45;;;;;;;15.54;35.55;101763.68;1830960;75;25976;-65
2022/12/29 11:42:56;;;;;;;14.30;9.43;;;;;;;15.03;36.01;101768.39;1851620;77;28046;-65
2022/12/29 11:45:27;;;;;;;19.75;9.50;;;;;;;14.69;36.06;101770.96;1854773;75;25487;-65
2022/12/29 11:48:08;;;;;;;21.75;10.82;;;;;;;14.17;36.90;101768.31;1821768;75;25778;-65
2022/12/29 11:50:40;;;;;;;17.48;9.93;;;;;;;13.82;37.38;101772.27;1823692;78;25768;-64
2022/12/29 11:53:24;;;;;;;19.30;10.28;;;;;;;13.63;37.98;101760.84;1829205;76;25772;-64
2022/12/29 11:56:08;;;;;;;23.87;10.43;;;;;;;13.51;38.59;101764.58;1840673;76;29653;-65
2022/12/29 11:58:38;;;;;;;26.97;11.18;;;;;;;13.33;39.06;101757.02;1861475;76;25729;-64
2022/12/29 12:01:23;;;;;;;24.10;11.70;;;;;;;13.38;39.52;101745.82;1853775;75;25788;-65
2022/12/29 12:04:10;;;;;;;20.37;12.75;;;;;;;13.60;38.94;101739.46;1861576;75;27875;-65
2022/12/29 12:06:46;;;;;;;20.37;11.60;;;;;;;13.37;39.32;101728.77;1837981;76;25789;-64
2022/12/29 12:09:27;;;;;;;23.47;11.65;;;;;;;13.13;39.46;101735.23;1852073;76;27444;-64